Time;durP1;ratioP1;P1;durP2;ratioP2;P2;SDS_P1;SDS_P2;PMS_P1;PMS_P2;Temp;Humidity;BMP_temperature;BMP_pressure;BME280_temperature;BME280_humidity;BME280_pressure;Samples;Min_cycle;Max_cycle;Signal;HPM_P1;HPM_P2
2023/10/23 00:01:22;;;;;;;4.18;3.40;;;;;;;10.24;100.00;101065.81;5064396;28;20046;-69
2023/10/23 00:03:47;;;;;;;5.30;3.75;;;;;;;10.21;100.00;101064.34;5069674;28;20021;-68
2023/10/23 00:06:12;;;;;;;7.90;3.92;;;;;;;10.24;100.00;101073.91;5069116;28;20032;-70
2023/10/23 00:08:37;;;;;;;6.97;4.10;;;;;;;10.24;100.00;101072.03;5069680;28;20029;-71
2023/10/23 00:11:03;;;;;;;4.28;3.40;;;;;;;10.24;100.00;101073.91;5068063;28;20049;-69
2023/10/23 00:13:28;;;;;;;4.63;3.60;;;;;;;10.25;100.00;101072.84;5069597;28;20020;-70
2023/10/23 00:15:53;;;;;;;6.18;4.47;;;;;;;10.09;100.00;101072.31;5062061;28;20080;-69
2023/10/23 00:18:18;;;;;;;5.70;4.60;;;;;;;10.06;100.00;101077.34;5046244;28;20033;-69
2023/10/23 00:20:44;;;;;;;6.82;3.80;;;;;;;10.21;100.00;101075.16;5062516;28;20040;-71
2023/10/23 00:23:09;;;;;;;5.78;4.60;;;;;;;10.00;100.00;101079.03;5069077;28;20107;-71
2023/10/23 00:25:34;;;;;;;5.82;4.45;;;;;;;10.01;100.00;101074.44;5068914;28;20112;-69
2023/10/23 00:28:01;;;;;;;4.60;2.80;;;;;;;10.15;100.00;101075.22;5068974;28;20017;-69
2023/10/23 00:30:27;;;;;;;7.47;3.33;;;;;;;10.17;100.00;101078.53;5069155;28;20031;-70
2023/10/23 00:32:52;;;;;;;7.00;4.63;;;;;;;9.93;100.00;101076.38;5067251;28;20025;-68
2023/10/23 00:35:17;;;;;;;10.55;3.60;;;;;;;10.13;100.00;101085.41;5067693;28;20039;-70
2023/10/23 00:37:43;;;;;;;5.70;3.55;;;;;;;10.14;100.00;101079.78;5069035;28;20393;-71
2023/10/23 00:40:08;;;;;;;4.60;3.42;;;;;;;10.14;100.00;101084.38;5067500;28;20031;-71
2023/10/23 00:42:33;;;;;;;6.03;3.25;;;;;;;10.10;100.00;101084.81;5068915;28;20021;-68
2023/10/23 00:44:59;;;;;;;4.22;3.67;;;;;;;10.10;100.00;101084.81;5068395;28;20049;-70
2023/10/23 00:47:25;;;;;;;7.50;4.03;;;;;;;9.82;100.00;101082.44;5066949;28;20466;-70
2023/10/23 00:49:51;;;;;;;7.75;4.88;;;;;;;9.87;100.00;101088.03;5067337;28;20390;-71
2023/10/23 00:52:16;;;;;;;5.75;3.38;;;;;;;10.03;100.00;101089.41;5067740;28;20113;-70
2023/10/23 00:54:42;;;;;;;5.93;3.30;;;;;;;10.05;100.00;101086.50;5068706;28;20425;-69
2023/10/23 00:57:07;;;;;;;8.32;3.65;;;;;;;10.05;100.00;101087.31;5061158;28;20426;-69
2023/10/23 00:59:33;;;;;;;5.50;3.35;;;;;;;10.06;100.00;101099.78;5055402;28;20037;-70
2023/10/23 01:01:58;;;;;;;3.90;3.30;;;;;;;10.08;100.00;101105.84;5049326;28;20048;-68
2023/10/23 01:04:24;;;;;;;9.52;3.50;;;;;;;10.11;100.00;101099.13;5055001;28;20017;-71
2023/10/23 01:06:50;;;;;;;6.85;4.43;;;;;;;9.91;100.00;101093.84;5055570;28;20025;-70
2023/10/23 01:09:16;;;;;;;5.03;3.45;;;;;;;10.08;100.00;101107.69;5054109;28;20020;-70
2023/10/23 01:11:42;;;;;;;6.60;3.95;;;;;;;10.08;100.00;101108.53;5054955;28;20021;-68
2023/10/23 01:14:07;;;;;;;7.75;4.28;;;;;;;9.91;100.00;101107.34;5053587;28;20025;-70
2023/10/23 01:16:32;;;;;;;4.35;3.03;;;;;;;10.08;100.00;101113.94;5053362;28;20112;-70
2023/10/23 01:18:57;;;;;;;6.15;3.42;;;;;;;10.08;100.00;101108.53;5055191;28;20029;-71
2023/10/23 01:21:23;;;;;;;8.73;3.10;;;;;;;10.10;100.00;101114.56;5054951;28;20048;-70
2023/10/23 01:23:49;;;;;;;7.68;3.28;;;;;;;10.11;100.00;101112.66;5053660;28;20372;-71
2023/10/23 01:26:14;;;;;;;5.70;3.53;;;;;;;10.09;100.00;101115.59;5040157;28;20037;-70
2023/10/23 01:28:40;;;;;;;8.77;3.30;;;;;;;10.09;100.00;101107.47;5034655;28;20025;-69
2023/10/23 01:31:05;;;;;;;5.07;3.42;;;;;;;10.09;100.00;101106.66;5033716;28;20435;-71
2023/10/23 01:33:30;;;;;;;6.35;3.13;;;;;;;10.07;100.00;101104.16;5034689;28;20030;-69
2023/10/23 01:35:56;;;;;;;8.38;4.50;;;;;;;9.86;100.00;101101.78;5034818;28;20029;-68
2023/10/23 01:38:21;;;;;;;6.20;3.85;;;;;;;9.76;100.00;101102.22;5034531;28;20025;-69
2023/10/23 01:40:46;;;;;;;8.02;3.40;;;;;;;9.98;100.00;101102.75;5033728;28;20029;-69
2023/10/23 01:43:12;;;;;;;10.18;3.30;;;;;;;9.99;100.00;101095.47;5035007;28;20033;-71
2023/10/23 01:45:37;;;;;;;4.93;3.60;;;;;;;10.00;100.00;101094.44;5034602;28;20037;-70
2023/10/23 01:48:03;;;;;;;8.25;4.30;;;;;;;9.72;100.00;101099.13;5034496;28;20057;-70
2023/10/23 01:50:28;;;;;;;7.97;4.38;;;;;;;9.79;100.00;101101.78;5034561;28;20032;-71
2023/10/23 01:52:53;;;;;;;6.88;3.03;;;;;;;9.92;100.00;101099.03;5034476;28;20504;-71
2023/10/23 01:55:19;;;;;;;6.35;3.40;;;;;;;9.93;100.00;101099.84;5035556;28;20381;-68
2023/10/23 01:57:44;;;;;;;8.27;3.28;;;;;;;9.93;100.00;101100.69;5033566;28;20475;-68
2023/10/23 02:00:10;;;;;;;7.57;3.47;;;;;;;9.93;100.00;101098.00;5034655;28;20037;-71
2023/10/23 02:02:36;;;;;;;11.30;4.05;;;;;;;9.92;100.00;101093.63;5047367;28;20468;-70
2023/10/23 02:05:02;;;;;;;6.78;3.30;;;;;;;9.90;100.00;101092.16;5053904;28;20032;-69
2023/10/23 02:07:28;;;;;;;6.18;3.45;;;;;;;9.87;100.00;101098.00;5052825;28;20029;-69
2023/10/23 02:09:54;;;;;;;7.22;3.10;;;;;;;9.86;100.00;101099.06;5053054;28;20074;-69
2023/10/23 02:12:19;;;;;;;6.55;3.15;;;;;;;9.85;100.00;101100.09;5034872;28;20056;-67
2023/10/23 02:14:44;;;;;;;6.55;3.10;;;;;;;9.83;100.00;101105.72;5034057;28;20124;-70
2023/10/23 02:17:10;;;;;;;5.93;3.08;;;;;;;9.83;100.00;101104.88;5033984;28;20029;-71
2023/10/23 02:19:35;;;;;;;7.75;4.30;;;;;;;9.54;100.00;101105.19;5034026;28;20021;-69
2023/10/23 02:22:00;;;;;;;6.55;3.10;;;;;;;9.76;100.00;101113.03;5033655;28;20111;-70
2023/10/23 02:24:25;;;;;;;5.43;2.90;;;;;;;9.79;100.00;101119.88;5033872;28;20025;-70
2023/10/23 02:26:51;;;;;;;9.02;3.38;;;;;;;9.80;100.00;101124.22;5035183;28;20369;-68
2023/10/23 02:29:17;;;;;;;11.45;4.50;;;;;;;9.44;100.00;101121.00;5033070;28;20033;-69
2023/10/23 02:31:42;;;;;;;5.30;2.90;;;;;;;9.70;100.00;101128.19;5034044;28;20111;-70
2023/10/23 02:34:07;;;;;;;7.47;3.28;;;;;;;9.71;100.00;101124.47;5034028;28;20032;-69
2023/10/23 02:36:33;;;;;;;5.60;3.25;;;;;;;9.72;100.00;101119.88;5033702;28;20021;-70
2023/10/23 02:38:59;;;;;;;6.05;3.47;;;;;;;9.71;100.00;101119.06;5033612;28;20104;-70
2023/10/23 02:41:25;;;;;;;5.57;3.28;;;;;;;9.70;100.00;101128.19;5036978;28;20078;-70
2023/10/23 02:43:50;;;;;;;6.20;3.53;;;;;;;9.71;100.00;101131.75;5053439;28;20560;-70
2023/10/23 02:46:16;;;;;;;5.50;3.40;;;;;;;9.69;100.00;101131.97;5053183;28;20045;-70
2023/10/23 02:48:41;;;;;;;4.93;2.92;;;;;;;9.67;100.00;101120.53;5053318;28;20064;-69
2023/10/23 02:51:07;;;;;;;4.75;3.28;;;;;;;9.65;100.00;101113.69;5051963;28;20513;-68
2023/10/23 02:53:32;;;;;;;8.07;3.45;;;;;;;9.66;100.00;101131.53;5050352;28;20489;-69
2023/10/23 02:55:57;;;;;;;6.13;3.28;;;;;;;9.65;100.00;101125.31;5031613;28;20036;-70
2023/10/23 02:58:22;;;;;;;7.18;3.30;;;;;;;9.64;100.00;101129.06;5051267;28;20078;-68
2023/10/23 03:00:48;;;;;;;5.57;3.08;;;;;;;9.61;100.00;101123.25;5049720;28;20017;-69
2023/10/23 03:03:13;;;;;;;6.13;3.40;;;;;;;9.56;100.00;101122.00;5053089;28;20025;-70
2023/10/23 03:05:39;;;;;;;7.72;3.40;;;;;;;9.53;100.00;101124.31;5052708;28;20029;-70
2023/10/23 03:08:05;;;;;;;5.38;3.45;;;;;;;9.50;100.00;101124.75;5045075;28;20018;-67
2023/10/23 03:10:31;;;;;;;8.60;3.65;;;;;;;9.46;100.00;101120.78;5033012;28;20029;-68
2023/10/23 03:12:57;;;;;;;7.93;2.95;;;;;;;9.42;100.00;101124.94;5048643;28;20029;-70
2023/10/23 03:15:22;;;;;;;4.03;2.90;;;;;;;9.37;100.00;101129.09;5052679;28;20561;-68
2023/10/23 03:17:48;;;;;;;8.68;3.72;;;;;;;9.07;100.00;101122.50;5052757;28;20108;-68
2023/10/23 03:20:13;;;;;;;5.32;2.92;;;;;;;9.25;100.00;101125.38;5052327;28;20037;-68
2023/10/23 03:22:38;;;;;;;4.68;2.63;;;;;;;9.24;100.00;101134.53;5052774;28;20114;-72
2023/10/23 03:25:05;;;;;;;8.60;3.00;;;;;;;9.20;100.00;101130.59;5050365;28;20574;-69
2023/10/23 03:27:31;;;;;;;3.88;2.90;;;;;;;9.19;100.00;101131.63;5050742;28;20044;-69
2023/10/23 03:29:57;;;;;;;4.20;3.00;;;;;;;9.16;100.00;101126.63;5050267;28;20025;-70
2023/10/23 03:32:22;;;;;;;3.92;2.65;;;;;;;9.13;100.00;101127.06;5052440;28;20025;-70
2023/10/23 03:34:48;;;;;;;4.00;2.50;;;;;;;9.09;100.00;101131.19;5052614;28;20341;-69
2023/10/23 03:37:13;;;;;;;7.85;2.90;;;;;;;9.05;100.00;101133.50;5052346;28;20462;-68
2023/10/23 03:39:38;;;;;;;5.45;2.70;;;;;;;9.02;100.00;101129.34;5051290;28;20025;-69
2023/10/23 03:42:04;;;;;;;8.45;3.10;;;;;;;9.02;100.00;101134.75;5051567;28;20024;-68
2023/10/23 03:44:29;;;;;;;6.07;3.50;;;;;;;8.70;100.00;101136.38;5036694;28;20061;-71
2023/10/23 03:46:54;;;;;;;8.93;3.70;;;;;;;8.62;100.00;101137.41;5032229;28;20029;-70
2023/10/23 03:49:20;;;;;;;6.75;3.67;;;;;;;8.62;100.00;101140.13;5032415;28;20121;-70
2023/10/23 03:51:45;;;;;;;4.50;2.30;;;;;;;8.85;100.00;101141.59;5032269;28;20056;-70
2023/10/23 03:54:11;;;;;;;4.28;2.60;;;;;;;8.87;100.00;101131.41;5032319;28;20025;-69
2023/10/23 03:56:36;;;;;;;4.70;3.05;;;;;;;8.91;100.00;101135.38;5032458;28;20037;-69
2023/10/23 03:59:02;;;;;;;5.05;3.28;;;;;;;8.91;100.00;101134.53;5032950;28;20445;-70
2023/10/23 04:01:28;;;;;;;5.85;3.17;;;;;;;8.89;100.00;101134.72;5044827;28;20044;-68
2023/10/23 04:03:53;;;;;;;6.78;2.90;;;;;;;8.89;100.00;101136.59;5052126;28;20029;-69
2023/10/23 04:06:18;;;;;;;5.05;3.28;;;;;;;8.57;100.00;101139.88;5052124;28;20028;-69
2023/10/23 04:08:44;;;;;;;3.65;2.75;;;;;;;8.81;100.00;101143.88;5052309;28;20021;-72
2023/10/23 04:11:13;;;;;;;4.57;2.90;;;;;;;8.81;100.00;101141.16;5052104;28;20131;-72
2023/10/23 04:13:38;;;;;;;3.63;2.75;;;;;;;8.81;100.00;101143.03;5046284;28;20112;-71
2023/10/23 04:16:03;;;;;;;5.32;2.63;;;;;;;8.80;100.00;101144.06;5032822;28;20117;-70
2023/10/23 04:18:29;;;;;;;4.22;2.75;;;;;;;8.76;100.00;101134.75;5050021;28;20025;-72
2023/10/23 04:21:07;;;;;;;5.65;2.85;;;;;;;8.75;100.00;101142.00;5052186;28;20025;-72
2023/10/23 04:23:34;;;;;;;4.72;2.45;;;;;;;8.72;100.00;101142.41;5052153;28;20032;-72
2023/10/23 04:25:59;;;;;;;3.17;2.40;;;;;;;8.71;100.00;101145.31;5051866;28;20032;-72
2023/10/23 04:28:25;;;;;;;5.03;2.70;;;;;;;8.69;100.00;101146.34;5051632;28;20047;-71
2023/10/23 04:30:51;;;;;;;6.22;2.67;;;;;;;8.66;100.00;101144.03;5050118;28;20076;-70
2023/10/23 04:33:19;;;;;;;6.40;2.95;;;;;;;8.65;100.00;101147.81;5035565;28;20028;-72
2023/10/23 04:35:45;;;;;;;5.10;2.72;;;;;;;8.62;100.00;101148.22;5035941;28;20118;-72
2023/10/23 04:38:10;;;;;;;3.85;2.60;;;;;;;8.58;100.00;101146.13;5035396;28;20064;-69
2023/10/23 04:40:35;;;;;;;4.70;2.80;;;;;;;8.55;100.00;101146.53;5035903;28;20025;-72
2023/10/23 04:43:00;;;;;;;4.70;2.88;;;;;;;8.53;100.00;101152.13;5035916;28;20021;-71
2023/10/23 04:45:26;;;;;;;5.90;2.72;;;;;;;8.53;100.00;101146.75;5035349;28;20511;-72
2023/10/23 04:47:51;;;;;;;5.80;2.88;;;;;;;8.50;100.00;101144.47;5040778;28;20017;-71
2023/10/23 04:50:16;;;;;;;5.00;2.85;;;;;;;8.45;100.00;101144.22;5047913;28;20086;-70
2023/10/23 04:52:42;;;;;;;5.45;2.92;;;;;;;8.45;100.00;101144.22;5053990;28;20183;-72
2023/10/23 04:55:08;;;;;;;5.25;3.05;;;;;;;8.46;100.00;101144.00;5055552;28;20029;-69
2023/10/23 04:57:33;;;;;;;3.85;2.63;;;;;;;8.45;100.00;101141.53;5055443;28;20048;-71
2023/10/23 04:59:59;;;;;;;6.35;3.40;;;;;;;8.44;100.00;101137.16;5055565;28;20029;-72
2023/10/23 05:02:24;;;;;;;5.28;3.03;;;;;;;8.42;100.00;101136.50;5051850;28;20048;-70
2023/10/23 05:04:49;;;;;;;6.68;2.65;;;;;;;8.42;100.00;101136.50;5052871;28;20502;-68
2023/10/23 05:07:15;;;;;;;4.00;2.55;;;;;;;8.40;100.00;101142.09;5044470;28;20028;-70
2023/10/23 05:09:40;;;;;;;4.30;2.40;;;;;;;8.37;100.00;101139.81;5035376;28;20364;-68
2023/10/23 05:12:06;;;;;;;9.82;2.70;;;;;;;8.36;100.00;101148.94;5035255;28;20032;-69
2023/10/23 05:14:32;;;;;;;5.57;2.83;;;;;;;8.31;100.00;101141.44;5035006;28;20028;-68
2023/10/23 05:16:57;;;;;;;3.08;2.17;;;;;;;8.27;100.00;101140.22;5035204;28;20056;-68
2023/10/23 05:19:22;;;;;;;5.43;2.42;;;;;;;8.26;100.00;101141.25;5034024;28;20029;-69
2023/10/23 05:21:47;;;;;;;6.93;3.15;;;;;;;7.97;100.00;101139.66;5035113;28;20039;-68
2023/10/23 05:24:13;;;;;;;7.13;2.90;;;;;;;8.18;100.00;101129.78;5034993;28;20029;-69
2023/10/23 05:26:38;;;;;;;2.97;2.25;;;;;;;8.18;100.00;101136.00;5034982;28;20025;-70
2023/10/23 05:29:03;;;;;;;6.88;3.30;;;;;;;7.86;100.00;101134.84;5034915;28;20060;-68
2023/10/23 05:31:28;;;;;;;2.80;2.30;;;;;;;8.10;100.00;101133.50;5034961;28;20025;-70
2023/10/23 05:33:54;;;;;;;6.35;2.70;;;;;;;8.11;100.00;101133.31;5039770;28;20367;-68
2023/10/23 05:36:19;;;;;;;7.82;2.30;;;;;;;8.12;100.00;101136.81;5034311;28;20029;-70
2023/10/23 05:38:44;;;;;;;2.80;2.38;;;;;;;8.10;100.00;101141.59;5034749;28;20540;-68
2023/10/23 05:41:10;;;;;;;6.10;2.22;;;;;;;8.09;100.00;101134.53;5034764;28;20076;-70
2023/10/23 05:43:35;;;;;;;4.85;2.50;;;;;;;8.08;100.00;101136.41;5034534;28;20046;-68
2023/10/23 05:46:03;;;;;;;4.95;2.58;;;;;;;8.06;100.00;101132.22;5034578;28;20068;-68
2023/10/23 05:48:28;;;;;;;2.97;2.45;;;;;;;8.04;100.00;101140.53;5034391;28;20112;-69
2023/10/23 05:51:02;;;;;;;2.55;2.33;;;;;;;8.03;100.00;101141.56;5033862;28;20408;-70
2023/10/23 05:53:28;;;;;;;5.50;2.25;;;;;;;7.99;100.00;101143.81;5034302;28;20029;-68
2023/10/23 05:55:54;;;;;;;5.72;2.40;;;;;;;7.99;100.00;101146.53;5034414;28;20025;-68
2023/10/23 05:58:19;;;;;;;3.78;2.40;;;;;;;7.98;100.00;101138.63;5033313;28;20119;-70
2023/10/23 06:00:45;;;;;;;5.43;2.55;;;;;;;7.95;100.00;101142.56;5032221;28;20026;-67
2023/10/23 06:03:10;;;;;;;4.85;2.42;;;;;;;7.96;100.00;101138.00;5052594;28;20032;-72
2023/10/23 06:05:40;;;;;;;6.32;2.70;;;;;;;7.93;100.00;101133.84;5033227;28;20094;-70
2023/10/23 06:08:05;;;;;;;3.05;2.38;;;;;;;7.92;100.00;101139.44;5034153;28;20025;-71
2023/10/23 06:10:31;;;;;;;4.20;2.50;;;;;;;7.90;100.00;101133.44;5033865;28;20033;-70
2023/10/23 06:12:56;;;;;;;3.10;2.50;;;;;;;7.88;100.00;101136.31;5033562;28;20104;-74
2023/10/23 06:15:21;;;;;;;3.75;2.50;;;;;;;7.87;100.00;101134.66;5033101;28;20029;-70
2023/10/23 06:17:48;;;;;;;6.03;2.40;;;;;;;7.85;100.00;101136.72;5033564;28;20472;-69
2023/10/23 06:20:14;;;;;;;3.17;2.30;;;;;;;7.85;100.00;101142.13;5051330;28;20029;-70
2023/10/23 06:22:39;;;;;;;8.73;3.05;;;;;;;7.84;100.00;101137.75;5038490;28;20033;-70
2023/10/23 06:25:05;;;;;;;5.07;2.97;;;;;;;7.84;100.00;101132.34;5033727;28;20444;-73
2023/10/23 06:27:30;;;;;;;3.75;2.65;;;;;;;7.85;100.00;101135.88;5033633;28;20101;-74
2023/10/23 06:29:55;;;;;;;3.33;2.70;;;;;;;7.86;100.00;101141.06;5033437;28;20208;-71
2023/10/23 06:32:21;;;;;;;2.65;2.45;;;;;;;7.85;100.00;101147.50;5033157;28;20034;-72
2023/10/23 06:34:50;;;;;;;4.63;2.70;;;;;;;7.88;100.00;101146.25;5033507;28;20096;-70
2023/10/23 06:37:15;;;;;;;2.95;2.40;;;;;;;7.87;100.00;101140.03;5032132;28;20116;-71
2023/10/23 06:39:40;;;;;;;5.63;2.95;;;;;;;7.90;100.00;101144.22;5033170;28;20100;-71
2023/10/23 06:42:06;;;;;;;4.03;2.70;;;;;;;7.94;100.00;101143.59;5033161;28;20594;-69
2023/10/23 06:44:32;;;;;;;5.45;2.88;;;;;;;7.99;100.00;101146.53;5032683;28;20025;-70
2023/10/23 06:46:57;;;;;;;5.55;2.72;;;;;;;8.05;100.00;101146.75;5032204;28;20029;-72
2023/10/23 06:49:22;;;;;;;13.25;3.03;;;;;;;8.05;100.00;101142.19;5032778;28;20032;-70
2023/10/23 06:51:47;;;;;;;5.25;2.80;;;;;;;8.07;100.00;101139.31;5031477;28;20415;-71
2023/10/23 06:54:13;;;;;;;6.93;2.92;;;;;;;8.10;100.00;101138.91;5031976;28;20453;-73
2023/10/23 06:56:38;;;;;;;4.60;2.60;;;;;;;8.14;100.00;101134.78;5031828;28;20025;-70
2023/10/23 06:59:03;;;;;;;5.32;2.83;;;;;;;8.18;100.00;101136.00;5031834;28;20112;-71
2023/10/23 07:01:29;;;;;;;8.50;3.53;;;;;;;8.20;100.00;101128.56;5033645;28;20092;-73
2023/10/23 17:22:29;;;;;;;11.93;6.75;;;;;;;11.90;100.00;100479.59;5068261;28;20390;-71
2023/10/23 17:24:54;;;;;;;17.98;7.65;;;;;;;11.90;100.00;100471.47;5067577;28;20039;-72
2023/10/23 17:27:19;;;;;;;15.40;11.20;;;;;;;11.84;100.00;100470.53;5068717;28;20028;-70
2023/10/23 17:29:45;;;;;;;19.25;7.60;;;;;;;11.88;100.00;100471.72;5066183;28;20059;-72
2023/10/23 17:32:10;;;;;;;12.27;6.93;;;;;;;11.88;100.00;100469.00;5069648;28;20031;-73
2023/10/23 17:34:36;;;;;;;17.42;11.27;;;;;;;11.82;100.00;100467.25;5069556;28;20028;-70
2023/10/23 17:37:02;;;;;;;11.10;7.13;;;;;;;11.88;100.00;100469.00;5069709;28;20061;-72
2023/10/23 17:39:28;;;;;;;15.77;10.82;;;;;;;11.83;100.00;100468.88;5057145;28;20424;-71
2023/10/23 17:41:53;;;;;;;14.20;10.90;;;;;;;11.79;100.00;100467.75;5047244;28;20063;-68
2023/10/23 17:44:18;;;;;;;14.95;10.48;;;;;;;11.84;100.00;100465.13;5059726;28;20029;-67
2023/10/23 17:46:44;;;;;;;12.80;9.88;;;;;;;11.83;100.00;100468.88;5049600;28;20021;-68
2023/10/23 23:47:15;;;;;;;10.45;6.88;;;;;;;11.44;100.00;100054.16;5121409;27;20406;-72
2023/10/23 23:49:40;;;;;;;9.23;5.80;;;;;;;11.43;100.00;100052.53;5089891;28;20028;-72
2023/10/23 23:52:06;;;;;;;12.65;6.05;;;;;;;11.45;100.00;100060.41;5112447;28;20020;-68
2023/10/23 23:54:32;;;;;;;12.27;5.72;;;;;;;11.46;100.00;100049.31;5090128;28;20103;-69
2023/10/23 23:56:57;;;;;;;8.18;5.65;;;;;;;11.49;100.00;100048.81;5089898;28;20069;-69
2023/10/23 23:59:22;;;;;;;14.07;5.95;;;;;;;11.50;100.00;100047.75;5090084;28;20219;-70
